Cosco Melbourne — V7IF5 — position and weather

sailwx.info

Track history (hours):
 
Tides and Currents Weather Stations Pressure Air Temp Water Temp Dewpoint Dewpoint Depression Visibility Wind Speed Wind Dir Waves Ship Positions

Cosco Melbourne

Last reported at 2017-Feb-27 01:10 UTC. Time now 2017-Feb-27 11:42 UTC.
Position N 01°15' E 104°04'.

Type: Ship (hazmat cat A). MMSI: 538002366.

Date/timePositionNaut miles runAvg speedWind from/ knotsBaromVisibWave heightAir tempDewpointWater temp
2017-Feb-27 01:10N 01°15' E 104°04'813.9
2017-Feb-27 00:33N 01°13' E 103°56'9 8.9
2017-Feb-26 23:33N 01°14' E 103°47'1 1.5
2017-Feb-26 22:33N 01°16' E 103°47'0 0.0
2017-Feb-26 21:33N 01°16' E 103°47'0 0.0
2017-Feb-26 20:33N 01°16' E 103°47'0 0.0
2017-Feb-26 19:33N 01°16' E 103°47'0 0.0
2017-Feb-26 18:33N 01°16' E 103°47'0 0.0
2017-Feb-26 17:33N 01°16' E 103°47'0 0.0
2017-Feb-26 16:33N 01°16' E 103°47'0 0.0
2017-Feb-26 15:33N 01°16' E 103°47'0 0.0
2017-Feb-26 14:33N 01°16' E 103°47'0 0.0
2017-Feb-26 13:33N 01°16' E 103°47'0 0.0
2017-Feb-26 12:33N 01°16' E 103°47'0 0.0
2017-Feb-26 11:33N 01°16' E 103°47'0 0.0
2017-Feb-26 10:33N 01°16' E 103°47'0 0.0
2017-Feb-26 09:33N 01°16' E 103°47'0 0.0
2017-Feb-26 08:33N 01°16' E 103°47'1 0.7
2017-Feb-26 07:33N 01°15' E 103°47'1 0.8
2017-Feb-26 06:33N 01°14' E 103°47'5 5.3
2017-Feb-26 05:33N 01°13' E 103°52'6 5.7
2017-Feb-26 04:33N 01°15' E 103°58'7 7.2
2017-Feb-26 03:31N 01°16' E 104°05'  
2017-Feb-17 14:14N 38°25' E 121°12'1316.2
2017-Feb-17 13:25N 38°31' E 120°57'1416.5
2017-Feb-17 12:33N 38°35' E 120°40'  
Track history (hours):
 
Tides and Currents Weather Stations Pressure Air Temp Water Temp Dewpoint Dewpoint Depression Visibility Wind Speed Wind Dir Waves Ship Positions

Cosco Melbourne

Last reported at 2017-Feb-27 01:10 UTC. Time now 2017-Feb-27 11:42 UTC.
Position N 01°15' E 104°04'.

Type: Ship (hazmat cat A). MMSI: 538002366.

Date/timePositionNaut miles runAvg speedWind from/ knotsBaromVisibWave heightAir tempDewpointWater temp
2017-Feb-27 01:10N 01°15' E 104°04'813.9
2017-Feb-27 00:33N 01°13' E 103°56'9 8.9
2017-Feb-26 23:33N 01°14' E 103°47'1 1.5
2017-Feb-26 22:33N 01°16' E 103°47'0 0.0
2017-Feb-26 21:33N 01°16' E 103°47'0 0.0
2017-Feb-26 20:33N 01°16' E 103°47'0 0.0
2017-Feb-26 19:33N 01°16' E 103°47'0 0.0
2017-Feb-26 18:33N 01°16' E 103°47'0 0.0
2017-Feb-26 17:33N 01°16' E 103°47'0 0.0
2017-Feb-26 16:33N 01°16' E 103°47'0 0.0
2017-Feb-26 15:33N 01°16' E 103°47'0 0.0
2017-Feb-26 14:33N 01°16' E 103°47'0 0.0
2017-Feb-26 13:33N 01°16' E 103°47'0 0.0
2017-Feb-26 12:33N 01°16' E 103°47'0 0.0
2017-Feb-26 11:33N 01°16' E 103°47'0 0.0
2017-Feb-26 10:33N 01°16' E 103°47'0 0.0
2017-Feb-26 09:33N 01°16' E 103°47'0 0.0
2017-Feb-26 08:33N 01°16' E 103°47'1 0.7
2017-Feb-26 07:33N 01°15' E 103°47'1 0.8
2017-Feb-26 06:33N 01°14' E 103°47'5 5.3
2017-Feb-26 05:33N 01°13' E 103°52'6 5.7
2017-Feb-26 04:33N 01°15' E 103°58'7 7.2
2017-Feb-26 03:31N 01°16' E 104°05'  
2017-Feb-17 14:14N 38°25' E 121°12'1316.2
2017-Feb-17 13:25N 38°31' E 120°57'1416.5
2017-Feb-17 12:33N 38°35' E 120°40'  

Dump ship's entire track history